Time;durP1;ratioP1;P1;durP2;ratioP2;P2;SDS_P1;SDS_P2;PMS_P1;PMS_P2;Temp;Humidity;BMP_temperature;BMP_pressure;BME280_temperature;BME280_humidity;BME280_pressure;Samples;Min_cycle;Max_cycle;Signal;HPM_P1;HPM_P2
2021/08/22 00:01:38;;;;;;;0.17;0.17;;;;;;;22.35;66.32;101494.41;5069105;28;20033;-91
2021/08/22 00:04:05;;;;;;;0.20;0.20;;;;;;;22.27;66.36;101498.41;5061185;28;20033;-94
2021/08/22 00:06:31;;;;;;;0.10;0.10;;;;;;;22.26;66.69;101496.66;5058608;28;20036;-95
2021/08/22 00:08:58;;;;;;;0.20;0.20;;;;;;;22.26;66.39;101499.38;5054710;28;20091;-96
2021/08/22 00:11:24;;;;;;;0.22;0.22;;;;;;;22.21;66.90;101496.06;5054857;28;20029;-92
2021/08/22 00:13:51;;;;;;;0.08;0.08;;;;;;;22.27;66.76;101492.16;5056373;28;20025;-95
2021/08/22 00:16:17;;;;;;;0.20;0.20;;;;;;;22.27;66.89;101490.31;5055774;28;20025;-90
2021/08/22 00:18:44;;;;;;;1.48;1.17;;;;;;;22.29;66.51;101485.72;5056581;28;20071;-94
2021/08/22 00:21:11;;;;;;;0.00;0.00;;;;;;;22.24;66.82;101482.41;5054785;28;20108;-95
2021/08/22 00:23:37;;;;;;;0.00;0.00;;;;;;;22.23;67.01;101491.47;5053225;28;20029;-96
2021/08/22 00:26:04;;;;;;;0.22;0.22;;;;;;;22.19;67.10;101484.50;5052572;28;20044;-90
2021/08/22 00:28:31;;;;;;;0.25;0.25;;;;;;;22.17;66.55;101486.44;5051439;28;20041;-94
2021/08/22 00:30:57;;;;;;;0.10;0.10;;;;;;;22.11;66.87;101484.09;5051933;28;20025;-95
2021/08/22 00:33:24;;;;;;;0.13;0.13;;;;;;;22.09;66.78;101472.50;5051994;28;20452;-95
2021/08/22 00:35:50;;;;;;;0.00;0.00;;;;;;;22.10;66.83;101482.34;5051920;28;20041;-96
2021/08/22 00:38:17;;;;;;;0.10;0.10;;;;;;;22.08;66.99;101478.84;5051578;28;20035;-93
2021/08/22 00:40:43;;;;;;;0.00;0.00;;;;;;;22.07;67.10;101477.13;5051509;28;20040;-95
2021/08/22 00:43:10;;;;;;;0.17;0.17;;;;;;;22.09;66.91;101472.50;5051946;28;20032;-96
2021/08/22 00:45:37;;;;;;;0.10;0.10;;;;;;;22.06;67.37;101475.41;5050703;28;20507;-94
2021/08/22 00:48:05;;;;;;;0.55;0.45;;;;;;;22.07;67.13;101478.00;5052584;28;20025;-96
2021/08/22 00:50:33;;;;;;;0.10;0.10;;;;;;;22.02;67.50;101481.91;5051362;28;20036;-94
2021/08/22 00:53:02;;;;;;;0.40;0.40;;;;;;;21.97;67.84;101485.75;5051651;28;20131;-96
2021/08/22 00:55:29;;;;;;;1.17;0.85;;;;;;;21.97;67.45;101480.34;5051145;28;20056;-96
2021/08/22 00:57:56;;;;;;;0.20;0.20;;;;;;;21.97;67.27;101474.97;5051172;28;20029;-96
2021/08/22 01:00:23;;;;;;;0.17;0.17;;;;;;;21.94;67.27;101474.28;5050462;28;20033;-96
2021/08/22 01:03:10;;;;;;;0.00;0.00;;;;;;;21.89;67.63;101466.44;5051362;28;20043;-96
2021/08/22 01:06:00;;;;;;;0.10;0.10;;;;;;;21.87;67.87;101475.56;5051042;28;20487;-96
2021/08/22 01:08:36;;;;;;;0.10;0.10;;;;;;;21.77;67.49;101473.41;5051982;28;20064;-94
2021/08/22 01:11:08;;;;;;;0.52;0.52;;;;;;;21.74;67.40;101472.72;5051252;28;20475;-94
2021/08/22 01:13:41;;;;;;;0.38;0.38;;;;;;;21.47;68.62;101482.25;5051914;28;20048;-96
2021/08/22 01:16:09;;;;;;;1.93;0.77;;;;;;;21.56;67.95;101480.91;5056103;28;20028;-95
2021/08/22 01:18:37;;;;;;;0.20;0.20;;;;;;;21.60;67.94;101471.69;5055202;28;20025;-95
2021/08/22 01:21:20;;;;;;;0.13;0.13;;;;;;;21.64;67.83;101465.13;5054845;28;20021;-96
2021/08/22 01:23:57;;;;;;;0.85;0.85;;;;;;;21.62;68.19;101468.88;5054418;28;20033;-89
2021/08/22 01:26:30;;;;;;;0.10;0.10;;;;;;;21.67;67.47;101460.53;5054638;28;20060;-94
2021/08/22 01:28:59;;;;;;;1.60;0.95;;;;;;;;;;5054789;28;20032;-94
2021/08/22 01:31:39;;;;;;;0.55;0.55;;;;;;;21.59;67.81;101460.97;5053097;28;20049;-96
2021/08/22 01:34:06;;;;;;;0.10;0.10;;;;;;;21.59;67.35;101459.16;5054445;28;20061;-95
2021/08/22 01:36:41;;;;;;;0.28;0.28;;;;;;;21.59;67.71;101459.16;5054833;28;20147;-96
2021/08/22 01:39:13;;;;;;;4.45;1.17;;;;;;;21.57;68.15;101460.19;5054215;28;20045;-96
2021/08/22 01:41:42;;;;;;;0.38;0.38;;;;;;;21.62;67.95;101463.50;5054184;28;20033;-96
2021/08/22 01:44:13;;;;;;;0.03;0.03;;;;;;;21.61;67.83;101462.63;5054809;28;20064;-90
2021/08/22 01:46:40;;;;;;;0.68;0.68;;;;;;;21.59;68.03;101464.53;5054184;28;20037;-96
2021/08/22 01:49:09;;;;;;;0.65;0.65;;;;;;;21.65;67.41;101458.78;5054526;28;20025;-96
2021/08/22 01:51:37;;;;;;;0.10;0.10;;;;;;;21.58;68.13;101461.94;5054044;28;20035;-94
2021/08/22 01:54:10;;;;;;;0.20;0.20;;;;;;;21.58;68.16;101462.81;5052755;28;20036;-96
2021/08/22 01:56:39;;;;;;;0.10;0.10;;;;;;;21.38;68.78;101461.19;5054947;28;20032;-94
2021/08/22 01:59:08;;;;;;;0.20;0.20;;;;;;;21.37;68.64;101459.47;5055996;28;20507;-96
2021/08/22 02:01:37;;;;;;;2.17;1.23;;;;;;;21.44;68.31;101465.38;5059818;28;20029;-96
2021/08/22 02:04:18;;;;;;;8.82;1.80;;;;;;;21.42;68.31;101461.91;5064764;28;20032;-94
2021/08/22 02:06:58;;;;;;;0.10;0.10;;;;;;;21.39;68.19;101470.16;5053896;28;20040;-96
2021/08/22 02:09:36;;;;;;;0.32;0.32;;;;;;;21.48;67.50;101467.84;5056115;28;20029;-96
2021/08/22 02:12:11;;;;;;;0.17;0.17;;;;;;;21.27;68.04;101472.59;5054664;28;20029;-96
2021/08/22 02:14:44;;;;;;;0.30;0.30;;;;;;;21.32;67.66;101473.19;5054531;28;20497;-92
2021/08/22 02:17:11;;;;;;;0.17;0.17;;;;;;;21.16;67.84;101477.69;5054530;28;20548;-95
2021/08/22 02:19:39;;;;;;;0.10;0.10;;;;;;;21.11;67.97;101474.38;5055951;28;20045;-96
2021/08/22 02:22:06;;;;;;;0.10;0.10;;;;;;;21.08;67.71;101477.25;5055285;28;20475;-96
2021/08/22 02:24:33;;;;;;;0.10;0.10;;;;;;;21.11;67.80;101471.66;5055845;28;20029;-95
2021/08/22 02:27:00;;;;;;;0.10;0.10;;;;;;;21.18;67.80;101486.56;5055381;28;20025;-96
2021/08/22 02:29:27;;;;;;;0.08;0.08;;;;;;;21.17;67.59;101474.91;5054531;28;20072;-96
2021/08/22 02:31:53;;;;;;;0.63;0.63;;;;;;;21.04;67.89;101472.97;5055513;28;20033;-94
2021/08/22 02:34:20;;;;;;;0.15;0.15;;;;;;;21.08;67.82;101470.00;5055584;28;20048;-95
2021/08/22 02:36:46;;;;;;;0.10;0.10;;;;;;;21.10;67.80;101472.66;5055174;28;20067;-87
2021/08/22 02:39:12;;;;;;;0.10;0.10;;;;;;;20.91;68.15;101478.13;5055101;28;20021;-95
2021/08/22 02:41:39;;;;;;;0.20;0.20;;;;;;;20.92;68.00;101486.16;5055164;28;20036;-95
2021/08/22 02:44:05;;;;;;;0.10;0.10;;;;;;;20.98;67.91;101474.16;5055256;28;20028;-95
2021/08/22 02:46:33;;;;;;;0.10;0.10;;;;;;;20.89;68.02;101483.63;5053990;28;20483;-96
2021/08/22 02:49:00;;;;;;;0.10;0.10;;;;;;;20.88;68.13;101481.00;5055278;28;20553;-96
2021/08/22 02:51:26;;;;;;;0.10;0.10;;;;;;;20.85;68.05;101477.53;5054878;28;20021;-95
2021/08/22 02:53:52;;;;;;;0.20;0.20;;;;;;;20.89;67.78;101474.69;5055211;28;20044;-96
2021/08/22 02:56:19;;;;;;;0.50;0.50;;;;;;;20.88;68.10;101468.41;5053961;28;20035;-94
2021/08/22 02:58:45;;;;;;;3.30;0.60;;;;;;;20.87;68.08;101472.03;5055303;28;20396;-94
2021/08/22 03:01:12;;;;;;;0.10;0.10;;;;;;;20.83;68.23;101467.78;5055252;28;20029;-95
2021/08/22 03:03:41;;;;;;;0.30;0.30;;;;;;;20.82;68.05;101463.34;5054806;28;20060;-96
2021/08/22 03:06:08;;;;;;;0.80;0.73;;;;;;;20.78;68.33;101467.16;5055097;28;20029;-95
2021/08/22 03:08:37;;;;;;;0.10;0.10;;;;;;;20.77;68.30;101458.22;5054889;28;20032;-96
2021/08/22 03:11:04;;;;;;;0.10;0.10;;;;;;;20.82;67.97;101457.94;5053562;28;20484;-96
2021/08/22 03:13:30;;;;;;;0.10;0.10;;;;;;;20.82;67.86;101455.25;5053774;28;20029;-96
2021/08/22 03:15:57;;;;;;;0.10;0.10;;;;;;;20.73;68.40;101447.69;5054528;28;20123;-96
2021/08/22 03:18:25;;;;;;;0.70;0.70;;;;;;;20.76;67.96;101452.91;5054684;28;20064;-96
2021/08/22 03:20:51;;;;;;;0.10;0.10;;;;;;;20.68;68.29;101462.22;5020977;28;20487;-96
2021/08/22 03:23:18;;;;;;;0.40;0.40;;;;;;;20.52;68.98;101456.78;5054564;28;20043;-96
2021/08/22 03:25:45;;;;;;;1.70;1.60;;;;;;;20.55;68.41;101458.44;5053276;28;20033;-96
2021/08/22 03:28:11;;;;;;;0.35;0.35;;;;;;;20.63;67.92;101461.59;5055107;28;20033;-96
2021/08/22 03:30:38;;;;;;;0.30;0.30;;;;;;;20.57;68.17;101461.91;5054768;28;20025;-94
2021/08/22 03:33:04;;;;;;;0.55;0.55;;;;;;;20.55;68.12;101457.56;5054727;28;20546;-96
2021/08/22 03:35:31;;;;;;;0.20;0.20;;;;;;;20.49;68.19;101459.63;5054331;28;20096;-93
2021/08/22 03:38:04;;;;;;;0.10;0.10;;;;;;;20.41;68.79;101455.59;5054037;28;20025;-95
2021/08/22 03:40:30;;;;;;;1.08;0.40;;;;;;;20.38;68.68;101453.06;5054496;28;20029;-96
2021/08/22 03:42:56;;;;;;;0.25;0.25;;;;;;;20.36;68.38;101445.94;5054122;28;20025;-96
2021/08/22 03:45:23;;;;;;;0.20;0.20;;;;;;;20.39;68.16;101454.78;5053987;28;20017;-96
2021/08/22 03:47:49;;;;;;;1.70;1.40;;;;;;;20.37;68.38;101452.19;5053174;28;20035;-96
2021/08/22 03:50:19;;;;;;;0.95;0.88;;;;;;;20.34;68.40;101458.59;5054228;28;20103;-96
2021/08/22 03:52:48;;;;;;;2.33;0.90;;;;;;;20.33;68.75;101462.22;5054161;28;20375;-96
2021/08/22 03:55:15;;;;;;;0.22;0.22;;;;;;;20.34;68.56;101463.13;5053044;28;20379;-96
2021/08/22 03:57:45;;;;;;;0.10;0.10;;;;;;;20.33;68.84;101461.38;5036447;28;20029;-96
2021/08/22 04:00:12;;;;;;;2.08;0.57;;;;;;;20.22;68.90;101469.13;5054422;28;20158;-95
2021/08/22 04:02:39;;;;;;;1.02;0.55;;;;;;;20.29;69.20;101466.03;5054281;28;20033;-94
2021/08/22 04:05:08;;;;;;;2.40;0.50;;;;;;;20.27;69.13;101467.06;5054407;28;20487;-95
2021/08/22 04:07:34;;;;;;;0.65;0.52;;;;;;;20.30;69.31;101469.59;5053856;28;20036;-96
2021/08/22 04:10:01;;;;;;;0.20;0.20;;;;;;;20.24;69.47;101468.09;5053872;28;20025;-96
2021/08/22 04:12:29;;;;;;;0.95;0.95;;;;;;;20.40;69.05;101467.31;5053924;28;20025;-91
2021/08/22 04:14:55;;;;;;;0.50;0.50;;;;;;;20.41;69.10;101464.56;5052697;28;20472;-95
2021/08/22 04:17:22;;;;;;;1.55;1.45;;;;;;;20.38;69.44;101470.06;5053961;28;20040;-95
2021/08/22 04:19:48;;;;;;;1.75;1.15;;;;;;;20.42;69.56;101470.78;5053797;28;20028;-95
2021/08/22 04:22:15;;;;;;;3.20;1.58;;;;;;;20.49;68.86;101462.31;5053738;28;20036;-96
2021/08/22 04:24:42;;;;;;;0.35;0.35;;;;;;;20.48;68.92;101467.78;5036221;28;20029;-96
2021/08/22 04:27:09;;;;;;;0.90;0.90;;;;;;;20.49;69.00;101461.47;5053765;28;20098;-96
2021/08/22 04:29:39;;;;;;;0.20;0.20;;;;;;;20.57;68.63;101469.13;5052578;28;20117;-96
2021/08/22 04:32:06;;;;;;;0.90;0.90;;;;;;;20.59;68.83;101462.72;5053706;28;20029;-96
2021/08/22 04:34:33;;;;;;;1.55;0.80;;;;;;;20.53;69.66;101469.28;5053793;28;20089;-96
2021/08/22 04:36:59;;;;;;;0.65;0.65;;;;;;;20.55;69.84;101465.63;5054177;28;20071;-96
2021/08/22 04:39:32;;;;;;;0.73;0.73;;;;;;;20.70;69.47;101470.22;5054825;28;20033;-96
2021/08/22 04:41:58;;;;;;;1.05;0.57;;;;;;;20.70;69.41;101464.84;5061168;28;20022;-96
2021/08/22 04:44:24;;;;;;;0.10;0.10;;;;;;;20.62;70.16;101473.34;5058545;28;20422;-95
2021/08/22 04:46:51;;;;;;;0.63;0.63;;;;;;;20.66;69.67;101468.63;5055897;28;20079;-91
2021/08/22 04:49:17;;;;;;;1.38;1.27;;;;;;;20.71;69.88;101465.72;5056854;28;20037;-96
2021/08/22 04:51:44;;;;;;;21.58;1.73;;;;;;;20.84;69.04;101461.44;5058217;28;20032;-96
2021/08/22 04:54:11;;;;;;;1.20;1.17;;;;;;;20.92;68.80;101467.31;5057296;28;20053;-96
2021/08/22 04:56:52;;;;;;;0.20;0.20;;;;;;;20.96;68.81;101459.91;5056595;28;20475;-95
2021/08/22 04:59:18;;;;;;;3.33;1.23;;;;;;;21.00;68.51;101466.88;5057991;28;20083;-96
2021/08/22 05:01:45;;;;;;;0.20;0.20;;;;;;;21.02;68.53;101470.34;5058676;28;20029;-96
2021/08/22 05:04:12;;;;;;;0.63;0.63;;;;;;;20.94;68.90;101472.59;5057961;28;20025;-96
2021/08/22 05:06:38;;;;;;;1.00;0.98;;;;;;;20.93;69.04;101476.25;5056893;28;20029;-89
2021/08/22 05:09:06;;;;;;;0.20;0.20;;;;;;;21.05;68.55;101464.81;5056017;28;20086;-95
2021/08/22 05:11:34;;;;;;;0.88;0.80;;;;;;;21.13;68.21;101464.38;5055882;28;20037;-93
2021/08/22 05:14:01;;;;;;;0.32;0.32;;;;;;;21.10;68.52;101467.25;5056918;28;20067;-94
2021/08/22 05:16:28;;;;;;;3.70;1.52;;;;;;;21.15;68.41;101465.19;5057072;28;20036;-95
2021/08/22 05:18:54;;;;;;;1.05;0.93;;;;;;;21.19;68.32;101466.75;5057316;28;20035;-88
2021/08/22 05:21:22;;;;;;;0.30;0.30;;;;;;;21.19;68.31;101466.75;5057151;28;20473;-86
2021/08/22 05:23:48;;;;;;;1.05;0.68;;;;;;;21.22;68.10;101455.81;5057123;28;20032;-88
2021/08/22 05:26:15;;;;;;;0.35;0.35;;;;;;;21.17;68.24;101465.94;5057116;28;20040;-93
2021/08/22 05:28:43;;;;;;;1.40;1.30;;;;;;;21.09;68.13;101465.50;5058697;28;20036;-90
2021/08/22 05:31:09;;;;;;;1.02;0.98;;;;;;;21.15;68.00;101474.13;5056983;28;20355;-87
2021/08/22 05:33:36;;;;;;;0.70;0.70;;;;;;;21.15;67.96;101470.56;5056777;28;20024;-96
2021/08/22 05:36:22;;;;;;;0.85;0.85;;;;;;;21.28;67.75;101466.25;5057790;28;20100;-94
2021/08/22 05:38:51;;;;;;;1.40;1.33;;;;;;;21.16;68.21;101466.94;5056827;28;20033;-95
2021/08/22 05:41:23;;;;;;;1.05;1.05;;;;;;;21.25;67.90;101471.78;5056138;28;20484;-96
2021/08/22 05:43:50;;;;;;;3.80;1.00;;;;;;;21.21;68.03;101478.31;5056681;28;20035;-96
2021/08/22 05:46:16;;;;;;;0.63;0.63;;;;;;;21.27;68.06;101466.31;5056597;28;20040;-96
2021/08/22 05:48:42;;;;;;;0.50;0.50;;;;;;;21.29;67.85;101472.50;5056675;28;20060;-92
2021/08/22 05:51:14;;;;;;;0.63;0.63;;;;;;;21.39;67.68;101475.56;5057013;28;20040;-87
2021/08/22 05:53:42;;;;;;;0.20;0.20;;;;;;;21.40;67.63;101477.31;5059169;28;20071;-91
2021/08/22 05:56:09;;;;;;;0.88;0.88;;;;;;;21.39;67.69;101473.72;5066942;28;20033;-83
2021/08/22 05:58:36;;;;;;;0.45;0.45;;;;;;;21.48;67.39;101469.63;5065659;28;20425;-96
2021/08/22 06:01:04;;;;;;;0.63;0.63;;;;;;;21.50;67.42;101473.97;5058251;28;20111;-90
2021/08/22 06:03:32;;;;;;;0.13;0.13;;;;;;;21.52;67.37;101479.31;5055184;28;20029;-84
2021/08/22 06:05:59;;;;;;;3.33;1.80;;;;;;;21.54;67.47;101482.78;5055371;28;20419;-91
2021/08/22 06:08:27;;;;;;;1.80;0.90;;;;;;;21.57;67.33;101481.75;5056375;28;20028;-84
2021/08/22 06:10:53;;;;;;;1.00;0.90;;;;;;;21.62;67.47;101477.88;5055961;28;20059;-88
2021/08/22 06:13:19;;;;;;;0.60;0.60;;;;;;;21.62;67.38;101485.94;5055808;28;20090;-96
2021/08/22 06:15:46;;;;;;;0.20;0.20;;;;;;;21.61;67.01;101484.22;5056215;28;20033;-96
2021/08/22 06:18:16;;;;;;;0.60;0.60;;;;;;;21.65;66.86;101491.16;5055914;28;20071;-96
2021/08/22 06:20:45;;;;;;;0.82;0.82;;;;;;;21.68;66.81;101490.13;5055798;28;20029;-94
2021/08/22 06:23:11;;;;;;;0.20;0.20;;;;;;;21.63;66.86;101489.50;5055791;28;20476;-87
2021/08/22 06:25:45;;;;;;;0.50;0.50;;;;;;;21.66;66.83;101500.13;5055944;28;20074;-86
2021/08/22 06:28:14;;;;;;;0.40;0.40;;;;;;;21.65;66.76;101496.56;5055343;28;20480;-94
2021/08/22 06:30:45;;;;;;;1.52;1.52;;;;;;;21.66;66.79;101492.03;5056294;28;20051;-96
2021/08/22 06:33:11;;;;;;;0.50;0.50;;;;;;;21.70;66.82;101492.75;5056834;28;20097;-95
2021/08/22 06:35:38;;;;;;;0.65;0.65;;;;;;;21.69;66.83;101499.09;5056434;28;20476;-91
2021/08/22 06:38:04;;;;;;;0.20;0.20;;;;;;;21.62;66.93;101496.75;5056284;28;20032;-89
2021/08/22 06:40:35;;;;;;;1.30;0.77;;;;;;;21.73;66.88;101511.44;5055386;28;20531;-95
2021/08/22 06:43:01;;;;;;;0.95;0.95;;;;;;;21.70;66.75;101504.41;5055930;28;20057;-93
2021/08/22 06:45:28;;;;;;;0.52;0.52;;;;;;;21.75;66.68;101501.44;5055965;28;20040;-94
2021/08/22 06:47:54;;;;;;;0.57;0.57;;;;;;;21.77;66.76;101510.28;5056427;28;20025;-91
2021/08/22 06:50:24;;;;;;;0.75;0.75;;;;;;;21.81;66.45;101511.88;5055581;28;20059;-93
2021/08/22 06:52:51;;;;;;;1.45;0.70;;;;;;;21.87;66.60;101516.94;5055758;28;20029;-93
2021/08/22 06:55:18;;;;;;;0.10;0.10;;;;;;;21.89;66.45;101506.91;5055507;28;20032;-92
2021/08/22 06:57:44;;;;;;;0.60;0.40;;;;;;;21.82;66.45;101519.03;5054944;28;20033;-89
2021/08/22 07:00:11;;;;;;;0.10;0.10;;;;;;;21.81;66.34;101517.28;5054894;28;20028;-85
2021/08/22 07:02:37;;;;;;;0.20;0.20;;;;;;;21.85;66.13;101513.44;5055048;28;20376;-88
2021/08/22 07:05:04;;;;;;;0.50;0.50;;;;;;;21.87;66.17;101518.75;5055136;28;20029;-93
2021/08/22 07:07:30;;;;;;;0.85;0.85;;;;;;;21.86;66.08;101519.69;5037052;28;20033;-86
2021/08/22 07:09:57;;;;;;;0.60;0.38;;;;;;;21.84;66.02;101519.78;5055096;28;20468;-90
2021/08/22 07:12:23;;;;;;;0.40;0.40;;;;;;;21.93;66.18;101521.09;5053268;28;20525;-87
2021/08/22 07:14:49;;;;;;;0.10;0.10;;;;;;;21.96;65.43;101521.78;5054844;28;20041;-87
2021/08/22 07:17:19;;;;;;;0.30;0.30;;;;;;;21.98;65.83;101514.47;5054344;28;20049;-85
2021/08/22 07:19:46;;;;;;;4.93;2.47;;;;;;;21.95;65.67;101519.19;5053475;28;20040;-91
2021/08/22 07:22:12;;;;;;;0.55;0.55;;;;;;;22.06;65.79;101527.53;5054102;28;20100;-85
2021/08/22 07:24:46;;;;;;;0.65;0.55;;;;;;;22.22;65.30;101521.22;5053667;28;20439;-96
2021/08/22 07:27:12;;;;;;;;;;;;;;;22.44;64.52;101515.47;5055501;28;20029;-85
2021/08/22 07:29:39;;;;;;;1.40;1.20;;;;;;;22.35;65.04;101516.84;5055188;28;19924;-90
2021/08/22 07:32:06;;;;;;;0.95;0.95;;;;;;;22.18;64.95;101515.16;5056516;28;20017;-90
2021/08/22 07:34:32;;;;;;;1.10;1.10;;;;;;;22.47;64.67;101509.91;5054327;28;20398;-87
2021/08/22 07:36:59;;;;;;;1.45;1.10;;;;;;;22.60;64.44;101510.91;5055159;28;20188;-88
2021/08/22 07:39:25;;;;;;;0.20;0.20;;;;;;;22.79;64.21;101515.16;5053838;28;20038;-87
2021/08/22 07:41:51;;;;;;;0.57;0.57;;;;;;;22.72;64.32;101525.47;5054856;28;20037;-96
2021/08/22 07:44:17;;;;;;;0.52;0.52;;;;;;;22.80;63.62;101516.06;5055681;28;20411;-95
2021/08/22 07:46:44;;;;;;;2.95;1.58;;;;;;;22.86;63.41;101516.53;5055011;28;20053;-95
2021/08/22 07:49:16;;;;;;;1.45;1.00;;;;;;;23.05;63.73;101520.81;5058246;28;20052;-96
2021/08/22 07:51:42;;;;;;;0.10;0.10;;;;;;;23.09;62.84;101519.63;5055166;28;20025;-89
2021/08/22 07:54:08;;;;;;;0.75;0.75;;;;;;;23.02;63.11;101518.31;5056024;28;20037;-96
2021/08/22 07:56:41;;;;;;;0.10;0.10;;;;;;;22.80;62.38;101516.06;5055906;28;20087;-96
2021/08/22 07:59:07;;;;;;;0.70;0.70;;;;;;;22.62;63.20;101522.47;5055470;28;20029;-95
2021/08/22 08:01:38;;;;;;;0.63;0.35;;;;;;;22.60;63.18;101526.22;5056837;28;20036;-93
2021/08/22 08:04:08;;;;;;;3.13;0.95;;;;;;;22.57;62.99;101527.28;5056754;28;20384;-88
2021/08/22 08:06:34;;;;;;;1.88;1.33;;;;;;;22.51;63.09;101527.66;5057756;28;20064;-96
2021/08/22 08:09:01;;;;;;;0.55;0.55;;;;;;;22.61;62.61;101522.56;5054533;28;20029;-95
2021/08/22 08:11:32;;;;;;;0.77;0.77;;;;;;;22.54;62.51;101526.59;5060407;28;20021;-91
2021/08/22 08:13:58;;;;;;;0.32;0.32;;;;;;;22.67;62.43;101530.31;5052391;28;20079;-88
2021/08/22 08:16:26;;;;;;;1.23;1.02;;;;;;;22.60;62.56;101532.50;5053757;28;20029;-89
2021/08/22 08:18:54;;;;;;;0.50;0.50;;;;;;;22.70;61.94;101540.03;5053790;28;20041;-84
2021/08/22 08:21:20;;;;;;;0.70;0.70;;;;;;;22.96;62.04;101537.59;5054135;28;20060;-87
2021/08/22 08:23:47;;;;;;;0.13;0.13;;;;;;;22.93;61.79;101534.13;5057822;28;20112;-84
2021/08/22 08:26:13;;;;;;;0.80;0.80;;;;;;;22.90;61.13;101536.13;5057948;28;20025;-84
2021/08/22 08:28:40;;;;;;;0.35;0.35;;;;;;;22.86;60.88;101540.84;5058621;28;20033;-90
2021/08/22 08:31:07;;;;;;;0.20;0.20;;;;;;;23.01;61.23;101540.88;5058589;28;20029;-95
2021/08/22 08:33:35;;;;;;;0.68;0.68;;;;;;;23.11;61.01;101536.63;5059591;28;20112;-96
2021/08/22 08:36:01;;;;;;;0.30;0.30;;;;;;;23.08;60.95;101542.25;5060642;28;20064;-96
2021/08/22 08:38:27;;;;;;;0.30;0.30;;;;;;;23.23;60.93;101540.47;5059181;28;20429;-96
2021/08/22 08:41:02;;;;;;;0.20;0.20;;;;;;;23.19;61.23;101545.19;5058287;28;20110;-96
2021/08/22 08:43:31;;;;;;;0.30;0.30;;;;;;;23.26;60.17;101541.16;5062644;28;20040;-96
2021/08/22 08:46:02;;;;;;;0.32;0.32;;;;;;;23.35;60.63;101536.09;5062432;28;20028;-96
2021/08/22 08:48:31;;;;;;;0.60;0.60;;;;;;;23.36;60.55;101540.53;5059922;28;20033;-96
2021/08/22 08:51:29;;;;;;;0.55;0.55;;;;;;;23.59;59.38;101545.34;5068461;28;20025;-96
2021/08/22 08:54:01;;;;;;;0.10;0.10;;;;;;;23.63;59.68;101537.03;5073564;28;20059;-96
2021/08/22 08:56:30;;;;;;;0.55;0.55;;;;;;;23.64;59.30;101539.66;5067885;28;20025;-96
2021/08/22 08:58:59;;;;;;;0.25;0.25;;;;;;;23.70;58.99;101532.97;5066161;28;20111;-96
2021/08/22 09:01:31;;;;;;;0.40;0.40;;;;;;;23.62;59.60;101535.31;5065861;28;20033;-93
2021/08/22 09:04:25;;;;;;;0.30;0.30;;;;;;;23.82;59.17;101525.91;5067792;28;20116;-95
2021/08/22 09:07:33;;;;;;;5.22;0.82;;;;;;;23.86;58.75;101522.03;5065139;28;20029;-96
2021/08/22 09:10:41;;;;;;;0.38;0.38;;;;;;;24.03;58.79;101529.94;5064611;28;20375;-96
2021/08/22 09:13:45;;;;;;;0.20;0.20;;;;;;;23.96;58.83;101534.00;5063510;28;20072;-96
2021/08/22 09:16:51;;;;;;;0.50;0.50;;;;;;;24.17;58.04;101539.84;5062438;28;20056;-96
2021/08/22 09:19:57;;;;;;;0.38;0.38;;;;;;;24.13;57.75;101532.91;5059270;28;20495;-95
2021/08/22 09:26:24;;;;;;;0.70;0.63;;;;;;;24.14;57.24;101533.75;5121942;27;20386;-96
2021/08/22 09:29:30;;;;;;;2.72;0.47;;;;;;;24.36;56.58;101544.03;5100971;28;20459;-96
2021/08/22 09:32:37;;;;;;;0.77;0.77;;;;;;;24.41;55.94;101541.00;5106274;28;20036;-96
2021/08/22 09:45:30;;;;;;;0.95;0.95;;;;;;;24.79;54.86;101537.56;5121991;27;20964;-96
2021/08/22 09:51:43;;;;;;;0.63;0.50;;;;;;;25.07;54.73;101535.63;5094188;27;20479;-96
2021/08/22 09:54:48;;;;;;;0.30;0.30;;;;;;;25.15;55.31;101544.94;5073130;28;20091;-96
2021/08/22 10:04:12;;;;;;;0.10;0.10;;;;;;;24.79;54.63;101549.25;5113909;27;20536;-96
2021/08/22 10:09:48;;;;;;;0.15;0.15;;;;;;;24.65;55.02;101552.03;5115622;27;20433;-96
2021/08/22 10:12:17;;;;;;;0.75;0.52;;;;;;;24.65;55.54;101546.63;5092757;28;20090;-96
2021/08/22 10:14:58;;;;;;;0.38;0.38;;;;;;;24.64;55.12;101547.59;5094951;28;20082;-96
2021/08/22 10:17:27;;;;;;;0.10;0.10;;;;;;;24.50;55.19;101543.97;5087670;28;20119;-96
2021/08/22 10:19:55;;;;;;;1.67;1.35;;;;;;;24.37;55.51;101543.06;5078198;28;20040;-93
2021/08/22 10:22:38;;;;;;;1.00;1.00;;;;;;;24.52;55.32;101547.44;5081144;28;20076;-94
2021/08/22 10:25:09;;;;;;;0.40;0.40;;;;;;;24.18;55.87;101544.28;5075280;28;20075;-95
2021/08/22 10:30:43;;;;;;;0.30;0.30;;;;;;;23.74;57.55;101561.59;5073420;28;20831;-94
2021/08/22 10:33:11;;;;;;;0.20;0.20;;;;;;;23.45;58.86;101561.59;5086880;28;20040;-93
2021/08/22 10:35:38;;;;;;;2.05;1.00;;;;;;;23.20;59.08;101565.84;5083547;28;20025;-96
2021/08/22 10:38:27;;;;;;;0.10;0.10;;;;;;;22.92;60.94;101570.19;5068681;28;20060;-93
2021/08/22 10:40:54;;;;;;;0.10;0.10;;;;;;;22.70;61.39;101564.34;5071102;28;20041;-96
2021/08/22 10:46:47;;;;;;;0.10;0.10;;;;;;;21.59;65.91;101603.91;5069774;28;20412;-94
2021/08/22 10:49:13;;;;;;;0.10;0.10;;;;;;;21.14;66.20;101603.56;5051254;28;20037;-84
2021/08/22 10:51:40;;;;;;;0.30;0.30;;;;;;;20.88;66.60;101605.75;5056605;28;20033;-92
2021/08/22 10:54:23;;;;;;;0.10;0.10;;;;;;;20.35;67.29;101604.81;5064814;28;20030;-94
2021/08/22 10:56:49;;;;;;;0.10;0.10;;;;;;;20.20;67.10;101619.88;5051597;28;20025;-89
2021/08/22 10:59:15;;;;;;;0.22;0.17;;;;;;;19.94;68.42;101604.97;5050658;28;20053;-93
2021/08/22 11:01:42;;;;;;;0.10;0.10;;;;;;;19.69;69.33;101608.78;5051440;28;20032;-91
2021/08/22 11:09:44;;;;;;;0.10;0.10;;;;;;;19.80;69.39;101597.50;5091500;27;20819;-91
2021/08/22 11:12:32;;;;;;;0.20;0.20;;;;;;;19.82;69.75;101598.34;5069798;28;20114;-91
2021/08/22 11:15:02;;;;;;;0.10;0.10;;;;;;;19.68;70.55;101604.34;5071445;28;20028;-90
2021/08/22 11:17:29;;;;;;;0.20;0.20;;;;;;;19.61;71.25;101597.50;5042175;28;20060;-90
2021/08/22 11:20:12;;;;;;;0.10;0.10;;;;;;;19.87;70.44;101601.69;5051319;28;20469;-89
2021/08/22 11:22:38;;;;;;;0.10;0.10;;;;;;;19.91;69.61;101595.22;5050599;28;20419;-90
2021/08/22 11:25:07;;;;;;;0.05;0.05;;;;;;;19.89;70.06;101597.13;5050854;28;20468;-87
2021/08/22 11:27:34;;;;;;;0.10;0.10;;;;;;;20.09;69.15;101598.88;5050372;28;20029;-88
2021/08/22 11:30:03;;;;;;;0.10;0.10;;;;;;;20.06;69.07;101606.22;5050427;28;20025;-90
2021/08/22 11:32:30;;;;;;;0.10;0.10;;;;;;;19.97;69.90;101611.06;5050726;28;20448;-86
2021/08/22 11:35:14;;;;;;;0.20;0.20;;;;;;;19.94;69.68;101613.91;5049210;28;20040;-86
2021/08/22 11:37:41;;;;;;;0.10;0.10;;;;;;;20.21;68.88;101613.53;5050216;28;20034;-86
2021/08/22 11:40:12;;;;;;;0.10;0.10;;;;;;;20.16;68.61;101616.47;5050486;28;20040;-87
2021/08/22 11:42:42;;;;;;;0.10;0.10;;;;;;;20.28;68.05;101619.50;5050234;28;20025;-85
2021/08/22 11:45:12;;;;;;;0.10;0.10;;;;;;;20.24;68.73;101624.16;5050373;28;20025;-85
2021/08/22 11:47:39;;;;;;;1.35;1.00;;;;;;;20.31;68.82;101620.22;5049995;28;20036;-88
2021/08/22 11:50:08;;;;;;;0.90;0.75;;;;;;;20.49;68.57;101615.75;5049961;28;20030;-84
2021/08/22 11:52:37;;;;;;;0.10;0.10;;;;;;;20.47;68.23;101608.69;5048599;28;20033;-83
2021/08/22 11:55:07;;;;;;;0.10;0.10;;;;;;;20.62;68.19;101607.94;5049619;28;20029;-85
2021/08/22 11:57:34;;;;;;;0.10;0.10;;;;;;;20.67;68.18;101600.50;5050062;28;20099;-84
2021/08/22 12:00:07;;;;;;;0.10;0.10;;;;;;;20.88;68.19;101596.81;5049636;28;20498;-87
2021/08/22 12:02:34;;;;;;;0.10;0.10;;;;;;;20.94;68.06;101591.97;5049845;28;20098;-88
2021/08/22 12:05:21;;;;;;;0.30;0.30;;;;;;;21.08;67.82;101596.66;5049415;28;20025;-86
2021/08/22 12:08:00;;;;;;;0.20;0.20;;;;;;;21.08;68.13;101593.09;5050028;28;20515;-84
2021/08/22 12:10:28;;;;;;;0.00;0.00;;;;;;;21.16;67.52;101585.50;5049520;28;20052;-88
2021/08/22 12:12:56;;;;;;;0.10;0.10;;;;;;;21.26;67.57;101589.44;5049836;28;20034;-84
2021/08/22 12:15:32;;;;;;;0.10;0.10;;;;;;;21.41;67.15;101584.16;5049751;28;20030;-85
2021/08/22 12:18:33;;;;;;;0.10;0.10;;;;;;;21.54;67.25;101582.53;5049275;28;20029;-82
2021/08/22 12:23:47;;;;;;;0.20;0.20;;;;;;;21.52;66.94;101580.88;5070717;28;20900;-85